Anne Sibum — C4YC2 — position and weather

sailwx.info

Track history (hours):
 
Tides and Currents Weather Stations Pressure Air Temp Water Temp Dewpoint Dewpoint Depression Visibility Wind Speed Wind Dir Waves Ship Positions

Anne Sibum

Last reported at 2014-Oct-22 21:34 UTC. Time now 2014-Oct-23 12:30 UTC.
Position N 59°31' E 021°19'.

Length 151 m; draft 6.3 m.

Type: Ship (hazmat cat A). MMSI: 209322000.

Date/timePositionNaut miles runAvg speedWind from/ knotsBaromVisibWave heightAir tempDewpointWater temp
2014-Oct-22 21:34N 59°31' E 021°19'5515.8
2014-Oct-22 18:06N 59°37' E 023°06'916.0
2014-Oct-22 17:33N 59°39' E 023°23'1616.0
2014-Oct-22 16:33N 59°43' E 023°53'4515.0
2014-Oct-22 13:33N 60°06' E 025°11'7 3.3
2014-Oct-22 11:25N 60°13' E 025°11'0 0.0
2014-Oct-22 10:31N 60°13' E 025°11'0 0.0
2014-Oct-22 09:31N 60°13' E 025°11'0 0.0
2014-Oct-22 08:33N 60°13' E 025°11'0 0.0
2014-Oct-22 07:33N 60°13' E 025°11'0 0.0
2014-Oct-22 06:32N 60°13' E 025°11'0 0.0
2014-Oct-22 05:32N 60°13' E 025°11'0 0.0
2014-Oct-22 04:31N 60°13' E 025°11'0 0.0
2014-Oct-22 03:31N 60°13' E 025°11'0 0.0
2014-Oct-22 02:31N 60°13' E 025°11'1 1.0
2014-Oct-22 01:33N 60°12' E 025°13'2811.7
2014-Oct-21 23:09N 59°48' E 024°47'813.7
2014-Oct-21 22:33N 59°45' E 024°32'2813.6
2014-Oct-21 20:30N 59°36' E 023°39'36015.0
2014-Oct-20 20:32N 55°36' E 015°19'1616.7
2014-Oct-20 19:33N 55°28' E 014°54'1616.1
2014-Oct-20 18:33N 55°18' E 014°32'1616.0
2014-Oct-20 17:33N 55°06' E 014°14'1616.2
2014-Oct-20 16:33N 54°57' E 013°50'6816.8
2014-Oct-20 12:30N 54°25' E 012°06'5117.5
2014-Oct-20 09:33N 54°33' E 010°39'1414.4
2014-Oct-20 08:33N 54°28' E 010°16'7 7.4
2014-Oct-20 07:34N 54°22' E 010°09'1 0.9
2014-Oct-20 06:33N 54°22' E 010°07'6 6.5
2014-Oct-20 05:34N 54°20' E 009°56'8 7.6
2014-Oct-20 04:33N 54°20' E 009°43'5 4.6
2014-Oct-20 03:27N 54°16' E 009°38'5 5.9
2014-Oct-20 02:34N 54°12' E 009°32'14 6.6
2014-Oct-20 00:23N 54°00' E 009°18'7 8.4
2014-Oct-19 23:34N 53°55' E 009°11'3 3.2
2014-Oct-19 22:33N 53°53' E 009°06'1312.8
2014-Oct-19 21:33N 53°51' E 008°45'1515.0
2014-Oct-19 20:33N 53°59' E 008°23'1414.4
2014-Oct-19 19:33N 53°57' E 007°59'8 8.2
2014-Oct-19 18:33N 53°50' E 008°06'1312.9
2014-Oct-19 17:33N 53°41' E 008°22'8 7.9
2014-Oct-19 16:33N 53°35' E 008°31'0 0.0
2014-Oct-19 15:33N 53°35' E 008°31'0 0.0
2014-Oct-19 14:32N 53°35' E 008°31'0 0.0
2014-Oct-19 13:32N 53°35' E 008°31'0 0.0
2014-Oct-19 12:34N 53°36' E 008°31'1 0.6
2014-Oct-19 11:31N 53°35' E 008°32'0 0.0
2014-Oct-19 10:33N 53°35' E 008°32'0 0.0
2014-Oct-19 09:33N 53°35' E 008°32'0 0.0
2014-Oct-19 08:32N 53°35' E 008°32'1 0.6
2014-Oct-19 07:33N 53°35' E 008°31'1414.4
2014-Oct-19 06:33N 53°45' E 008°13'1414.3
2014-Oct-19 05:33N 53°53' E 007°53'1 0.4
2014-Oct-19 03:07N 53°53' E 007°52'2 3.6
2014-Oct-19 02:30N 53°55' E 007°55'1313.5
2014-Oct-19 01:33N 54°00' E 008°14'1616.4
2014-Oct-19 00:33N 53°55' E 008°41'1514.8
2014-Oct-18 23:33N 53°53' E 009°06'1310.6
2014-Oct-18 22:18N 53°45' E 009°24'911.4
2014-Oct-18 21:33N 53°38' E 009°32'1111.0
2014-Oct-18 20:33N 53°33' E 009°48'4 3.7
2014-Oct-18 19:29N 53°32' E 009°55'0 0.0
2014-Oct-18 18:32N 53°32' E 009°55'0 0.0
2014-Oct-18 17:32N 53°32' E 009°55'0 0.0
2014-Oct-18 16:25N 53°32' E 009°55'2 2.6
2014-Oct-18 15:33N 53°30' E 009°56'0 0.0
2014-Oct-18 14:34N 53°30' E 009°56'0 0.0
2014-Oct-18 13:33N 53°30' E 009°56'0 0.0
2014-Oct-18 12:33N 53°30' E 009°56'0 0.0
2014-Oct-18 11:34N 53°30' E 009°56'0 0.0
2014-Oct-18 10:33N 53°30' E 009°56'0 0.0
2014-Oct-18 09:33N 53°30' E 009°56'0 0.0
2014-Oct-18 08:33N 53°30' E 009°56'0 0.0
2014-Oct-18 07:33N 53°30' E 009°56'0 0.0
2014-Oct-18 06:33N 53°30' E 009°56'0 0.0
2014-Oct-18 05:33N 53°30' E 009°56'0 0.0
2014-Oct-18 04:33N 53°30' E 009°56'0 0.2
2014-Oct-18 03:33N 53°30' E 009°56'2 2.2
2014-Oct-18 02:29N 53°32' E 009°57'0 0.0
2014-Oct-18 01:28N 53°32' E 009°57'0 0.0
2014-Oct-18 00:16N 53°32' E 009°57'0 0.0
2014-Oct-17 23:28N 53°32' E 009°57'0 0.0
2014-Oct-17 22:33N 53°32' E 009°57'0 0.0
2014-Oct-17 21:33N 53°32' E 009°57'0 0.0
2014-Oct-17 20:32N 53°32' E 009°57'0 0.0
2014-Oct-17 19:32N 53°32' E 009°57'0 0.0
2014-Oct-17 18:33N 53°32' E 009°57'1 1.1
2014-Oct-17 17:33N 53°32' E 009°55'1 0.5
2014-Oct-17 16:18N 53°32' E 009°55'0 0.0
2014-Oct-17 15:24N 53°32' E 009°55'0 0.0
2014-Oct-17 14:30N 53°32' E 009°55'0 0.0
2014-Oct-17 12:23N 53°32' E 009°55'0 0.0
2014-Oct-17 11:33N 53°32' E 009°55'0 0.0
2014-Oct-17 10:33N 53°32' E 009°55'0 0.0
2014-Oct-17 09:26N 53°32' E 009°55'0 0.0
2014-Oct-17 08:26N 53°32' E 009°55'0 0.0
2014-Oct-17 07:32N 53°32' E 009°55'0 0.0
2014-Oct-17 06:32N 53°32' E 009°55'0 0.0
2014-Oct-17 05:32N 53°32' E 009°55'0 0.0
2014-Oct-17 04:32N 53°32' E 009°55'0 0.0
2014-Oct-17 03:28N 53°32' E 009°55'0 0.0
2014-Oct-17 02:28N 53°32' E 009°55'0 0.0
2014-Oct-17 01:32N 53°32' E 009°55'0 0.0
2014-Oct-17 00:33N 53°32' E 009°55'0 0.0
2014-Oct-16 23:32N 53°32' E 009°55'4 3.6
2014-Oct-16 22:34N 53°33' E 009°49'1111.4
2014-Oct-16 21:33N 53°38' E 009°32'1414.0
2014-Oct-16 20:33N 53°50' E 009°20'8 7.7
2014-Oct-16 19:33N 53°54' E 009°09'1 0.8
2014-Oct-16 18:33N 53°54' E 009°10'6 6.3
2014-Oct-16 17:33N 53°59' E 009°17'8 8.3
2014-Oct-16 16:33N 54°07' E 009°20'8 7.9
2014-Oct-16 15:33N 54°11' E 009°31'5 5.4
2014-Oct-16 14:33N 54°15' E 009°37'6 6.2
2014-Oct-16 13:33N 54°20' E 009°44'5 5.4
2014-Oct-16 12:33N 54°21' E 009°53'6 6.1
2014-Oct-16 11:33N 54°22' E 010°04'3 3.4
2014-Oct-16 10:33N 54°22' E 010°09'1110.6
2014-Oct-16 09:33N 54°31' E 010°20'1616.0
2014-Oct-16 08:32N 54°35' E 010°47'3316.6
2014-Oct-16 06:33N 54°28' E 011°42'2813.8
2014-Oct-16 04:32N 54°41' E 012°25'6816.3
2014-Oct-16 00:22N 54°39' E 014°22'1417.0
2014-Oct-15 23:33N 54°40' E 014°45'1717.1
2014-Oct-15 22:33N 54°42' E 015°15'10216.9
2014-Oct-15 16:30N 54°55' E 018°11'1616.8
2014-Oct-15 15:33N 54°55' E 018°38'1616.0
2014-Oct-15 14:33N 54°44' E 018°59'1515.0
2014-Oct-15 13:33N 54°32' E 018°45'8 8.2
2014-Oct-15 12:32N 54°33' E 018°30'0 0.0
2014-Oct-15 11:32N 54°33' E 018°30'0 0.0
2014-Oct-15 10:31N 54°33' E 018°30'0 0.0
2014-Oct-15 09:31N 54°33' E 018°30'0 0.0
2014-Oct-15 08:33N 54°33' E 018°30'0 0.0
2014-Oct-15 07:33N 54°33' E 018°30'0 0.0
2014-Oct-15 06:33N 54°33' E 018°30'0 0.0
2014-Oct-15 05:32N 54°33' E 018°30'0 0.0
2014-Oct-15 04:32N 54°33' E 018°30'0 0.0
2014-Oct-15 03:31N 54°33' E 018°30'0 0.0
2014-Oct-15 02:31N 54°33' E 018°30'0 0.0
2014-Oct-15 01:33N 54°33' E 018°30'0 0.0
2014-Oct-15 00:33N 54°33' E 018°30'0 0.0
2014-Oct-14 23:33N 54°33' E 018°30'0 0.0
2014-Oct-14 22:32N 54°33' E 018°30'0 0.0
2014-Oct-14 21:32N 54°33' E 018°30'0 0.0
2014-Oct-14 20:31N 54°33' E 018°30'0 0.0
2014-Oct-14 19:31N 54°33' E 018°30'0 0.0
2014-Oct-14 18:33N 54°33' E 018°30'0 0.0
2014-Oct-14 17:33N 54°33' E 018°30'0 0.0
2014-Oct-14 16:33N 54°33' E 018°30'0 0.0
2014-Oct-14 15:32N 54°33' E 018°30'0 0.0
2014-Oct-14 14:32N 54°33' E 018°30'0 0.0
2014-Oct-14 13:31N 54°33' E 018°30'0 0.0
2014-Oct-14 12:31N 54°33' E 018°30'0 0.0
2014-Oct-14 11:28N 54°33' E 018°30'0 0.0
2014-Oct-14 10:34N 54°33' E 018°30'0 0.0
2014-Oct-14 09:33N 54°33' E 018°30'0 0.0
2014-Oct-14 08:30N 54°33' E 018°30'0 0.0
2014-Oct-14 07:32N 54°33' E 018°30'0 0.0
2014-Oct-14 06:32N 54°33' E 018°30'0 0.0
2014-Oct-14 05:31N 54°33' E 018°30'0 0.0
2014-Oct-14 04:31N 54°33' E 018°30'0 0.2
2014-Oct-14 03:33N 54°33' E 018°31'0 0.0
2014-Oct-14 02:21N 54°33' E 018°31'0 0.0
2014-Oct-14 01:33N 54°33' E 018°31'0 0.0
2014-Oct-14 00:32N 54°33' E 018°31'0 0.0
2014-Oct-13 23:32N 54°33' E 018°31'0 0.0
2014-Oct-13 22:31N 54°33' E 018°31'0 0.0
2014-Oct-13 21:32N 54°33' E 018°31'0 0.0
2014-Oct-13 20:32N 54°33' E 018°31'1 1.4
2014-Oct-13 19:34N 54°32' E 018°33'8 7.9
2014-Oct-13 18:34N 54°32' E 018°47'1212.1
2014-Oct-13 17:34N 54°43' E 018°57'1110.6
2014-Oct-13 16:34N 54°51' E 018°46'1211.4
2014-Oct-13 15:33N 54°56' E 018°28'1212.4
2014-Oct-13 14:33N 54°56' E 018°06'11912.5
2014-Oct-13 05:06N 54°38' E 014°43'7212.1
2014-Oct-12 23:08N 54°42' E 012°38'1012.3
2014-Oct-12 22:21N 54°37' E 012°24'  
Track history (hours):
 
Tides and Currents Weather Stations Pressure Air Temp Water Temp Dewpoint Dewpoint Depression Visibility Wind Speed Wind Dir Waves Ship Positions

Anne Sibum

Last reported at 2014-Oct-22 21:34 UTC. Time now 2014-Oct-23 12:30 UTC.
Position N 59°31' E 021°19'.

Length 151 m; draft 6.3 m.

Type: Ship (hazmat cat A). MMSI: 209322000.

Date/timePositionNaut miles runAvg speedWind from/ knotsBaromVisibWave heightAir tempDewpointWater temp
2014-Oct-22 21:34N 59°31' E 021°19'5515.8
2014-Oct-22 18:06N 59°37' E 023°06'916.0
2014-Oct-22 17:33N 59°39' E 023°23'1616.0
2014-Oct-22 16:33N 59°43' E 023°53'4515.0
2014-Oct-22 13:33N 60°06' E 025°11'7 3.3
2014-Oct-22 11:25N 60°13' E 025°11'0 0.0
2014-Oct-22 10:31N 60°13' E 025°11'0 0.0
2014-Oct-22 09:31N 60°13' E 025°11'0 0.0
2014-Oct-22 08:33N 60°13' E 025°11'0 0.0
2014-Oct-22 07:33N 60°13' E 025°11'0 0.0
2014-Oct-22 06:32N 60°13' E 025°11'0 0.0
2014-Oct-22 05:32N 60°13' E 025°11'0 0.0
2014-Oct-22 04:31N 60°13' E 025°11'0 0.0
2014-Oct-22 03:31N 60°13' E 025°11'0 0.0
2014-Oct-22 02:31N 60°13' E 025°11'1 1.0
2014-Oct-22 01:33N 60°12' E 025°13'2811.7
2014-Oct-21 23:09N 59°48' E 024°47'813.7
2014-Oct-21 22:33N 59°45' E 024°32'2813.6
2014-Oct-21 20:30N 59°36' E 023°39'36015.0
2014-Oct-20 20:32N 55°36' E 015°19'1616.7
2014-Oct-20 19:33N 55°28' E 014°54'1616.1
2014-Oct-20 18:33N 55°18' E 014°32'1616.0
2014-Oct-20 17:33N 55°06' E 014°14'1616.2
2014-Oct-20 16:33N 54°57' E 013°50'6816.8
2014-Oct-20 12:30N 54°25' E 012°06'5117.5
2014-Oct-20 09:33N 54°33' E 010°39'1414.4
2014-Oct-20 08:33N 54°28' E 010°16'7 7.4
2014-Oct-20 07:34N 54°22' E 010°09'1 0.9
2014-Oct-20 06:33N 54°22' E 010°07'6 6.5
2014-Oct-20 05:34N 54°20' E 009°56'8 7.6
2014-Oct-20 04:33N 54°20' E 009°43'5 4.6
2014-Oct-20 03:27N 54°16' E 009°38'5 5.9
2014-Oct-20 02:34N 54°12' E 009°32'14 6.6
2014-Oct-20 00:23N 54°00' E 009°18'7 8.4
2014-Oct-19 23:34N 53°55' E 009°11'3 3.2
2014-Oct-19 22:33N 53°53' E 009°06'1312.8
2014-Oct-19 21:33N 53°51' E 008°45'1515.0
2014-Oct-19 20:33N 53°59' E 008°23'1414.4
2014-Oct-19 19:33N 53°57' E 007°59'8 8.2
2014-Oct-19 18:33N 53°50' E 008°06'1312.9
2014-Oct-19 17:33N 53°41' E 008°22'8 7.9
2014-Oct-19 16:33N 53°35' E 008°31'0 0.0
2014-Oct-19 15:33N 53°35' E 008°31'0 0.0
2014-Oct-19 14:32N 53°35' E 008°31'0 0.0
2014-Oct-19 13:32N 53°35' E 008°31'0 0.0
2014-Oct-19 12:34N 53°36' E 008°31'1 0.6
2014-Oct-19 11:31N 53°35' E 008°32'0 0.0
2014-Oct-19 10:33N 53°35' E 008°32'0 0.0
2014-Oct-19 09:33N 53°35' E 008°32'0 0.0
2014-Oct-19 08:32N 53°35' E 008°32'1 0.6
2014-Oct-19 07:33N 53°35' E 008°31'1414.4
2014-Oct-19 06:33N 53°45' E 008°13'1414.3
2014-Oct-19 05:33N 53°53' E 007°53'1 0.4
2014-Oct-19 03:07N 53°53' E 007°52'2 3.6
2014-Oct-19 02:30N 53°55' E 007°55'1313.5
2014-Oct-19 01:33N 54°00' E 008°14'1616.4
2014-Oct-19 00:33N 53°55' E 008°41'1514.8
2014-Oct-18 23:33N 53°53' E 009°06'1310.6
2014-Oct-18 22:18N 53°45' E 009°24'911.4
2014-Oct-18 21:33N 53°38' E 009°32'1111.0
2014-Oct-18 20:33N 53°33' E 009°48'4 3.7
2014-Oct-18 19:29N 53°32' E 009°55'0 0.0
2014-Oct-18 18:32N 53°32' E 009°55'0 0.0
2014-Oct-18 17:32N 53°32' E 009°55'0 0.0
2014-Oct-18 16:25N 53°32' E 009°55'2 2.6
2014-Oct-18 15:33N 53°30' E 009°56'0 0.0
2014-Oct-18 14:34N 53°30' E 009°56'0 0.0
2014-Oct-18 13:33N 53°30' E 009°56'0 0.0
2014-Oct-18 12:33N 53°30' E 009°56'0 0.0
2014-Oct-18 11:34N 53°30' E 009°56'0 0.0
2014-Oct-18 10:33N 53°30' E 009°56'0 0.0
2014-Oct-18 09:33N 53°30' E 009°56'0 0.0
2014-Oct-18 08:33N 53°30' E 009°56'0 0.0
2014-Oct-18 07:33N 53°30' E 009°56'0 0.0
2014-Oct-18 06:33N 53°30' E 009°56'0 0.0
2014-Oct-18 05:33N 53°30' E 009°56'0 0.0
2014-Oct-18 04:33N 53°30' E 009°56'0 0.2
2014-Oct-18 03:33N 53°30' E 009°56'2 2.2
2014-Oct-18 02:29N 53°32' E 009°57'0 0.0
2014-Oct-18 01:28N 53°32' E 009°57'0 0.0
2014-Oct-18 00:16N 53°32' E 009°57'0 0.0
2014-Oct-17 23:28N 53°32' E 009°57'0 0.0
2014-Oct-17 22:33N 53°32' E 009°57'0 0.0
2014-Oct-17 21:33N 53°32' E 009°57'0 0.0
2014-Oct-17 20:32N 53°32' E 009°57'0 0.0
2014-Oct-17 19:32N 53°32' E 009°57'0 0.0
2014-Oct-17 18:33N 53°32' E 009°57'1 1.1
2014-Oct-17 17:33N 53°32' E 009°55'1 0.5
2014-Oct-17 16:18N 53°32' E 009°55'0 0.0
2014-Oct-17 15:24N 53°32' E 009°55'0 0.0
2014-Oct-17 14:30N 53°32' E 009°55'0 0.0
2014-Oct-17 12:23N 53°32' E 009°55'0 0.0
2014-Oct-17 11:33N 53°32' E 009°55'0 0.0
2014-Oct-17 10:33N 53°32' E 009°55'0 0.0
2014-Oct-17 09:26N 53°32' E 009°55'0 0.0
2014-Oct-17 08:26N 53°32' E 009°55'0 0.0
2014-Oct-17 07:32N 53°32' E 009°55'0 0.0
2014-Oct-17 06:32N 53°32' E 009°55'0 0.0
2014-Oct-17 05:32N 53°32' E 009°55'0 0.0
2014-Oct-17 04:32N 53°32' E 009°55'0 0.0
2014-Oct-17 03:28N 53°32' E 009°55'0 0.0
2014-Oct-17 02:28N 53°32' E 009°55'0 0.0
2014-Oct-17 01:32N 53°32' E 009°55'0 0.0
2014-Oct-17 00:33N 53°32' E 009°55'0 0.0
2014-Oct-16 23:32N 53°32' E 009°55'4 3.6
2014-Oct-16 22:34N 53°33' E 009°49'1111.4
2014-Oct-16 21:33N 53°38' E 009°32'1414.0
2014-Oct-16 20:33N 53°50' E 009°20'8 7.7
2014-Oct-16 19:33N 53°54' E 009°09'1 0.8
2014-Oct-16 18:33N 53°54' E 009°10'6 6.3
2014-Oct-16 17:33N 53°59' E 009°17'8 8.3
2014-Oct-16 16:33N 54°07' E 009°20'8 7.9
2014-Oct-16 15:33N 54°11' E 009°31'5 5.4
2014-Oct-16 14:33N 54°15' E 009°37'6 6.2
2014-Oct-16 13:33N 54°20' E 009°44'5 5.4
2014-Oct-16 12:33N 54°21' E 009°53'6 6.1
2014-Oct-16 11:33N 54°22' E 010°04'3 3.4
2014-Oct-16 10:33N 54°22' E 010°09'1110.6
2014-Oct-16 09:33N 54°31' E 010°20'1616.0
2014-Oct-16 08:32N 54°35' E 010°47'3316.6
2014-Oct-16 06:33N 54°28' E 011°42'2813.8
2014-Oct-16 04:32N 54°41' E 012°25'6816.3
2014-Oct-16 00:22N 54°39' E 014°22'1417.0
2014-Oct-15 23:33N 54°40' E 014°45'1717.1
2014-Oct-15 22:33N 54°42' E 015°15'10216.9
2014-Oct-15 16:30N 54°55' E 018°11'1616.8
2014-Oct-15 15:33N 54°55' E 018°38'1616.0
2014-Oct-15 14:33N 54°44' E 018°59'1515.0
2014-Oct-15 13:33N 54°32' E 018°45'8 8.2
2014-Oct-15 12:32N 54°33' E 018°30'0 0.0
2014-Oct-15 11:32N 54°33' E 018°30'0 0.0
2014-Oct-15 10:31N 54°33' E 018°30'0 0.0
2014-Oct-15 09:31N 54°33' E 018°30'0 0.0
2014-Oct-15 08:33N 54°33' E 018°30'0 0.0
2014-Oct-15 07:33N 54°33' E 018°30'0 0.0
2014-Oct-15 06:33N 54°33' E 018°30'0 0.0
2014-Oct-15 05:32N 54°33' E 018°30'0 0.0
2014-Oct-15 04:32N 54°33' E 018°30'0 0.0
2014-Oct-15 03:31N 54°33' E 018°30'0 0.0
2014-Oct-15 02:31N 54°33' E 018°30'0 0.0
2014-Oct-15 01:33N 54°33' E 018°30'0 0.0
2014-Oct-15 00:33N 54°33' E 018°30'0 0.0
2014-Oct-14 23:33N 54°33' E 018°30'0 0.0
2014-Oct-14 22:32N 54°33' E 018°30'0 0.0
2014-Oct-14 21:32N 54°33' E 018°30'0 0.0
2014-Oct-14 20:31N 54°33' E 018°30'0 0.0
2014-Oct-14 19:31N 54°33' E 018°30'0 0.0
2014-Oct-14 18:33N 54°33' E 018°30'0 0.0
2014-Oct-14 17:33N 54°33' E 018°30'0 0.0
2014-Oct-14 16:33N 54°33' E 018°30'0 0.0
2014-Oct-14 15:32N 54°33' E 018°30'0 0.0
2014-Oct-14 14:32N 54°33' E 018°30'0 0.0
2014-Oct-14 13:31N 54°33' E 018°30'0 0.0
2014-Oct-14 12:31N 54°33' E 018°30'0 0.0
2014-Oct-14 11:28N 54°33' E 018°30'0 0.0
2014-Oct-14 10:34N 54°33' E 018°30'0 0.0
2014-Oct-14 09:33N 54°33' E 018°30'0 0.0
2014-Oct-14 08:30N 54°33' E 018°30'0 0.0
2014-Oct-14 07:32N 54°33' E 018°30'0 0.0
2014-Oct-14 06:32N 54°33' E 018°30'0 0.0
2014-Oct-14 05:31N 54°33' E 018°30'0 0.0
2014-Oct-14 04:31N 54°33' E 018°30'0 0.2
2014-Oct-14 03:33N 54°33' E 018°31'0 0.0
2014-Oct-14 02:21N 54°33' E 018°31'0 0.0
2014-Oct-14 01:33N 54°33' E 018°31'0 0.0
2014-Oct-14 00:32N 54°33' E 018°31'0 0.0
2014-Oct-13 23:32N 54°33' E 018°31'0 0.0
2014-Oct-13 22:31N 54°33' E 018°31'0 0.0
2014-Oct-13 21:32N 54°33' E 018°31'0 0.0
2014-Oct-13 20:32N 54°33' E 018°31'1 1.4
2014-Oct-13 19:34N 54°32' E 018°33'8 7.9
2014-Oct-13 18:34N 54°32' E 018°47'1212.1
2014-Oct-13 17:34N 54°43' E 018°57'1110.6
2014-Oct-13 16:34N 54°51' E 018°46'1211.4
2014-Oct-13 15:33N 54°56' E 018°28'1212.4
2014-Oct-13 14:33N 54°56' E 018°06'11912.5
2014-Oct-13 05:06N 54°38' E 014°43'7212.1
2014-Oct-12 23:08N 54°42' E 012°38'1012.3
2014-Oct-12 22:21N 54°37' E 012°24'  

Dump ship's entire track history